Time;durP1;ratioP1;P1;durP2;ratioP2;P2;SDS_P1;SDS_P2;PMS_P1;PMS_P2;Temp;Humidity;BMP_temperature;BMP_pressure;BME280_temperature;BME280_humidity;BME280_pressure;Samples;Min_cycle;Max_cycle;Signal;HPM_P1;HPM_P2
2023/02/28 00:01:29;;;;;;;21.40;15.90;;;;;;;2.51;98.67;101591.41;105788;1254;60995;-88
2023/02/28 00:03:57;;;;;;;22.20;17.60;;;;;;;2.51;98.76;101590.05;105990;1254;61568;-88
2023/02/28 00:06:24;;;;;;;22.90;17.20;;;;;;;2.52;99.03;101600.89;106455;1254;74982;-87
2023/02/28 00:08:51;;;;;;;22.70;17.30;;;;;;;2.52;98.70;101601.92;108706;1254;63523;-83
2023/02/28 00:11:21;;;;;;;22.40;16.50;;;;;;;2.52;98.47;101598.14;107186;1254;72829;-87
2023/02/28 00:13:48;;;;;;;20.80;15.70;;;;;;;2.54;98.32;101595.35;105863;1257;61107;-87
2023/02/28 00:16:20;;;;;;;22.50;16.00;;;;;;;2.52;98.09;101591.73;105976;1254;61336;-88
2023/02/28 00:18:48;;;;;;;20.90;15.40;;;;;;;2.52;98.13;101603.14;107977;1254;74896;-85
2023/02/28 00:21:16;;;;;;;19.80;13.90;;;;;;;2.53;98.06;101609.35;108128;1253;63528;-84
2023/02/28 00:23:43;;;;;;;19.60;14.50;;;;;;;2.51;98.11;101608.50;106290;1257;73892;-87
2023/02/28 00:26:10;;;;;;;21.10;15.20;;;;;;;2.51;98.23;101604.70;107552;1254;60762;-87
2023/02/28 00:28:38;;;;;;;17.90;14.70;;;;;;;2.50;97.99;101596.08;105891;1254;60425;-88
2023/02/28 00:31:08;;;;;;;19.10;14.80;;;;;;;2.47;97.63;101595.77;105839;1258;74919;-88
2023/02/28 00:33:36;;;;;;;19.40;14.30;;;;;;;2.46;97.83;101593.88;106330;1258;64802;-86
2023/02/28 00:36:08;;;;;;;16.60;12.80;;;;;;;2.45;97.64;101596.48;106056;1254;72612;-88
2023/02/28 00:38:38;;;;;;;16.50;12.80;;;;;;;2.45;97.73;101598.21;105860;1259;60698;-87
2023/02/28 00:41:06;;;;;;;18.00;13.40;;;;;;;2.43;97.65;101592.18;109007;1254;61562;-86
2023/02/28 00:43:35;;;;;;;16.90;13.40;;;;;;;2.41;97.75;101592.39;109658;1254;73493;-85
2023/02/28 00:46:02;;;;;;;17.90;13.50;;;;;;;2.40;97.54;101585.84;107685;1254;62548;-86
2023/02/28 00:48:32;;;;;;;17.70;13.40;;;;;;;2.36;97.37;101587.09;107873;1254;72619;-86
2023/02/28 00:50:58;;;;;;;14.90;12.60;;;;;;;2.34;97.44;101585.91;106468;1254;60986;-88
2023/02/28 00:53:26;;;;;;;14.20;11.50;;;;;;;2.30;97.36;101588.02;106091;1253;60567;-89
2023/02/28 00:55:53;;;;;;;14.20;10.90;;;;;;;2.29;97.35;101596.84;106577;1257;74743;-86
2023/02/28 00:58:28;;;;;;;14.40;11.90;;;;;;;2.26;97.30;101601.51;106013;1257;64728;-89
2023/02/28 01:00:54;;;;;;;17.70;12.10;;;;;;;2.22;97.10;101609.66;105788;1254;72410;-88
2023/02/28 01:03:22;;;;;;;18.70;12.70;;;;;;;2.21;97.24;101612.60;105889;1254;60515;-88
2023/02/28 01:05:50;;;;;;;13.00;11.10;;;;;;;2.19;97.30;101616.23;106048;1254;61478;-86
2023/02/28 01:08:16;;;;;;;15.40;12.10;;;;;;;2.15;97.04;101613.69;105749;1254;75057;-88
2023/02/28 01:10:44;;;;;;;14.00;11.90;;;;;;;2.08;97.06;101611.17;106859;1254;64888;-87
2023/02/28 01:13:12;;;;;;;13.00;11.10;;;;;;;2.05;97.24;101620.85;108709;1257;72197;-86
2023/02/28 01:15:41;;;;;;;14.60;10.80;;;;;;;2.08;97.36;101622.02;105951;1258;62843;-86
2023/02/28 01:18:10;;;;;;;12.90;10.50;;;;;;;2.12;97.43;101627.52;105654;1254;61070;-87
2023/02/28 01:20:38;;;;;;;14.00;10.20;;;;;;;2.13;97.43;101635.09;105648;1254;74713;-88
2023/02/28 01:23:04;;;;;;;13.80;10.70;;;;;;;2.16;97.48;101639.03;105908;1258;63915;-88
2023/02/28 01:25:36;;;;;;;15.80;11.90;;;;;;;2.17;97.12;101639.88;105863;1254;73713;-86
2023/02/28 01:28:05;;;;;;;17.80;11.30;;;;;;;2.13;96.62;101636.64;105886;1254;62233;-88
2023/02/28 01:30:32;;;;;;;16.20;11.70;;;;;;;2.07;96.41;101637.90;106612;1253;60348;-85
2023/02/28 01:33:01;;;;;;;12.90;10.00;;;;;;;2.00;96.43;101624.52;109128;1255;73333;-84
2023/02/28 01:35:35;;;;;;;13.90;10.70;;;;;;;1.95;96.46;101620.92;109261;1253;63752;-85
2023/02/28 01:38:02;;;;;;;13.00;10.20;;;;;;;1.96;96.67;101614.73;108747;1254;72762;-84
2023/02/28 01:40:48;;;;;;;12.00;10.30;;;;;;;1.94;96.32;101610.08;107598;1254;60303;-86
2023/02/28 01:43:21;;;;;;;13.10;9.80;;;;;;;1.91;96.52;101603.71;107542;1254;60348;-87
2023/02/28 01:45:47;;;;;;;12.90;9.60;;;;;;;1.94;96.79;101599.89;105845;1254;74823;-85
2023/02/28 01:48:15;;;;;;;14.70;10.60;;;;;;;1.96;96.29;101610.23;105936;1259;63494;-87
2023/02/28 01:52:45;;;;;;;13.30;10.90;;;;;;;2.01;96.25;101625.54;102846;1289;600123;-86
2023/02/28 01:55:15;;;;;;;16.30;11.20;;;;;;;1.96;95.90;101636.63;105061;1264;60250;-88
2023/02/28 01:57:46;;;;;;;12.40;10.00;;;;;;;1.93;95.85;101641.29;105046;1264;61345;-85
2023/02/28 02:00:17;;;;;;;14.30;11.50;;;;;;;1.94;95.96;101643.01;105403;1263;73532;-89
2023/02/28 02:02:50;;;;;;;13.60;10.60;;;;;;;1.96;96.04;101648.17;105006;1264;64581;-85
2023/02/28 02:05:23;;;;;;;13.80;10.70;;;;;;;2.00;95.89;101644.00;104564;1263;764506;-86
2023/02/28 02:07:56;;;;;;;15.60;12.10;;;;;;;2.00;95.53;101653.49;105338;1263;60496;-87
2023/02/28 02:10:30;;;;;;;15.20;11.90;;;;;;;1.97;95.23;101658.50;105336;1264;61413;-87
2023/02/28 02:13:25;;;;;;;17.30;13.00;;;;;;;1.94;95.01;101662.15;105331;1266;73157;-86
2023/02/28 02:16:09;;;;;;;14.60;11.40;;;;;;;1.87;94.73;101673.07;105611;1262;65116;-85
2023/02/28 02:18:47;;;;;;;14.00;12.10;;;;;;;1.82;94.86;101678.79;106163;1263;72372;-85
2023/02/28 02:21:45;;;;;;;15.70;10.80;;;;;;;1.80;95.16;101677.26;106355;1266;60249;-85
2023/02/28 02:24:25;;;;;;;15.10;11.50;;;;;;;1.78;94.96;101685.54;105315;1264;61043;-87
2023/02/28 02:27:09;;;;;;;16.90;12.90;;;;;;;1.75;94.94;101688.50;107216;1252;73989;-85
2023/02/28 02:29:53;;;;;;;16.50;12.50;;;;;;;1.72;94.83;101698.50;106450;1254;65035;-85
2023/02/28 02:32:30;;;;;;;15.10;11.90;;;;;;;1.71;94.76;101710.92;105853;1257;73523;-86
2023/02/28 02:35:17;;;;;;;17.60;13.10;;;;;;;1.72;94.84;101716.61;106059;1251;62005;-85
2023/02/28 02:38:12;;;;;;;16.70;12.10;;;;;;;1.75;94.89;101722.80;107174;1251;61310;-85
2023/02/28 02:40:54;;;;;;;14.90;11.60;;;;;;;1.78;94.89;101729.85;107414;1250;73023;-83
2023/02/28 02:43:51;;;;;;;16.30;12.50;;;;;;;1.81;94.55;101731.04;108145;1251;63471;-85
2023/02/28 02:46:22;;;;;;;15.30;12.60;;;;;;;1.80;94.36;101728.45;106019;1250;71887;-84
2023/02/28 02:48:51;;;;;;;16.80;12.80;;;;;;;1.78;94.18;101731.91;106508;1251;62037;-86
2023/02/28 02:51:20;;;;;;;17.10;12.20;;;;;;;1.76;94.30;101739.70;106011;1251;61320;-87
2023/02/28 02:54:16;;;;;;;16.50;12.20;;;;;;;1.73;94.51;101742.11;106071;1250;72930;-85
2023/02/28 02:56:46;;;;;;;17.00;12.70;;;;;;;1.75;94.79;101742.45;106002;1257;63938;-85
2023/02/28 02:59:21;;;;;;;15.90;12.80;;;;;;;1.77;94.47;101742.44;106033;1251;72591;-88
2023/02/28 03:01:55;;;;;;;15.50;12.60;;;;;;;1.82;94.78;101742.58;106126;1251;59778;-84
2023/02/28 03:04:24;;;;;;;16.20;12.80;;;;;;;1.86;94.44;101748.59;106069;1251;61243;-85
2023/02/28 03:06:54;;;;;;;15.70;12.10;;;;;;;1.84;94.23;101754.63;106067;1249;74078;-86
2023/02/28 03:09:23;;;;;;;14.00;11.60;;;;;;;1.80;93.61;101765.70;106027;1254;64522;-83
2023/02/28 03:11:52;;;;;;;15.30;11.90;;;;;;;1.74;93.75;101767.11;106028;1253;73725;-83
2023/02/28 03:14:36;;;;;;;13.70;11.60;;;;;;;1.70;93.88;101773.66;106023;1257;62251;-86
2023/02/28 03:17:23;;;;;;;16.90;11.70;;;;;;;1.70;94.01;101773.67;106041;1251;61978;-84
2023/02/28 03:20:12;;;;;;;17.80;12.20;;;;;;;1.73;94.12;101780.04;106004;1253;74555;-85
2023/02/28 03:22:41;;;;;;;18.00;13.10;;;;;;;1.78;93.93;101777.79;106062;1253;64587;-84
2023/02/28 03:25:12;;;;;;;15.80;12.60;;;;;;;1.81;93.96;101779.83;106090;1253;73595;-86
2023/02/28 03:28:01;;;;;;;16.70;13.00;;;;;;;1.84;93.46;101776.00;106134;1256;60610;-84
2023/02/28 03:30:58;;;;;;;13.60;11.40;;;;;;;1.83;93.18;101777.41;106089;1250;61071;-84
2023/02/28 03:33:30;;;;;;;16.00;11.80;;;;;;;1.81;92.69;101773.97;106474;1251;74095;-87
2023/02/28 03:36:02;;;;;;;14.20;10.70;;;;;;;1.77;93.07;101774.34;106132;1250;63767;-84
2023/02/28 03:38:37;;;;;;;13.90;10.80;;;;;;;1.71;92.74;101775.91;106132;1251;73556;-84
2023/02/28 03:41:21;;;;;;;15.70;10.60;;;;;;;1.63;92.66;101777.16;106156;1256;60544;-85
2023/02/28 03:43:53;;;;;;;17.60;12.70;;;;;;;1.57;92.63;101772.35;106180;1253;60067;-86
2023/02/28 03:46:25;;;;;;;16.00;12.00;;;;;;;1.50;92.41;101779.11;106004;1255;74501;-86
2023/02/28 03:49:15;;;;;;;15.80;10.90;;;;;;;1.47;92.42;101779.80;105964;1250;63848;-85
2023/02/28 03:51:44;;;;;;;14.50;10.30;;;;;;;1.44;92.64;101780.48;106175;1251;72604;-85
2023/02/28 03:54:17;;;;;;;16.40;10.40;;;;;;;1.47;92.96;101782.90;109145;1250;60221;-83
2023/02/28 03:56:53;;;;;;;12.70;9.80;;;;;;;1.50;93.15;101784.26;109935;1250;60300;-85
2023/02/28 03:59:28;;;;;;;13.20;10.50;;;;;;;1.52;92.69;101790.29;107054;1251;72956;-84
2023/02/28 04:01:58;;;;;;;14.50;11.60;;;;;;;1.51;92.63;101794.59;106632;1253;64876;-86
2023/02/28 04:04:26;;;;;;;14.50;9.80;;;;;;;1.48;92.16;101800.81;106198;1253;73614;-85
2023/02/28 04:07:07;;;;;;;14.20;10.00;;;;;;;1.47;92.02;101797.55;106202;1251;61968;-86
2023/02/28 04:09:35;;;;;;;11.40;9.00;;;;;;;1.48;92.03;101797.38;105998;1251;61187;-85
2023/02/28 04:12:09;;;;;;;12.20;9.70;;;;;;;1.49;92.24;101794.79;107611;1250;74056;-82
2023/02/28 04:14:39;;;;;;;14.00;10.50;;;;;;;1.51;92.35;101793.74;106196;1251;64949;-86
2023/02/28 04:17:08;;;;;;;12.60;10.60;;;;;;;1.52;92.03;101806.48;106029;1253;73605;-86
2023/02/28 04:19:37;;;;;;;12.50;10.10;;;;;;;1.51;92.05;101810.29;106141;1254;60284;-86
2023/02/28 04:22:05;;;;;;;14.00;10.30;;;;;;;1.53;91.76;101818.55;106129;1252;61065;-85
2023/02/28 04:24:33;;;;;;;13.10;10.00;;;;;;;1.57;91.85;101824.92;106072;1253;73360;-85
2023/02/28 04:27:02;;;;;;;12.20;9.70;;;;;;;1.66;91.71;101831.44;106119;1253;64506;-85
2023/02/28 04:29:34;;;;;;;14.00;10.90;;;;;;;1.74;91.58;101831.05;106090;1253;73631;-86
2023/02/28 04:32:02;;;;;;;14.70;11.50;;;;;;;1.78;91.43;101835.52;106118;1251;59589;-87
2023/02/28 04:34:32;;;;;;;13.70;10.10;;;;;;;1.82;91.55;101847.05;106216;1251;61447;-86
2023/02/28 04:37:02;;;;;;;12.60;10.40;;;;;;;1.87;91.11;101846.88;106197;1251;73982;-85
2023/02/28 04:39:42;;;;;;;15.20;11.40;;;;;;;1.89;90.74;101847.20;106129;1251;64873;-87
2023/02/28 04:42:11;;;;;;;14.30;10.30;;;;;;;1.90;90.87;101847.55;106400;1251;72428;-83
2023/02/28 04:44:40;;;;;;;14.90;11.40;;;;;;;1.95;90.97;101848.73;107825;1250;60964;-83
2023/02/28 04:47:09;;;;;;;14.80;10.30;;;;;;;2.00;90.69;101851.65;107499;1253;59989;-85
2023/02/28 04:49:38;;;;;;;13.90;10.30;;;;;;;2.05;90.47;101845.74;106196;1254;73974;-86
2023/02/28 04:52:10;;;;;;;13.30;9.60;;;;;;;2.08;90.34;101845.73;106251;1253;64426;-86
2023/02/28 04:54:41;;;;;;;13.10;9.10;;;;;;;2.09;90.12;101843.67;106218;1250;73630;-85
2023/02/28 04:57:10;;;;;;;13.30;10.30;;;;;;;2.05;89.69;101850.23;108233;1252;60265;-84
2023/02/28 04:59:39;;;;;;;15.30;9.60;;;;;;;2.04;90.28;101851.97;106670;1250;60228;-86
2023/02/28 05:02:08;;;;;;;12.30;9.40;;;;;;;2.05;89.80;101857.48;106159;1250;73971;-85
2023/02/28 05:04:37;;;;;;;12.10;9.20;;;;;;;2.06;89.89;101855.93;106111;1255;64886;-85
2023/02/28 05:07:05;;;;;;;11.90;9.00;;;;;;;2.10;89.67;101862.98;106216;1251;73534;-86
2023/02/28 05:09:34;;;;;;;10.80;8.80;;;;;;;2.12;89.46;101872.64;106161;1253;62784;-86
2023/02/28 05:12:06;;;;;;;12.00;9.40;;;;;;;2.15;89.26;101874.70;106163;1251;61420;-85
2023/02/28 05:14:36;;;;;;;11.10;8.80;;;;;;;2.12;89.37;101880.55;106376;1250;74235;-85
2023/02/28 05:17:05;;;;;;;9.50;8.10;;;;;;;2.08;89.43;101882.14;107582;1249;63548;-85
2023/02/28 05:19:34;;;;;;;11.10;8.10;;;;;;;2.05;89.53;101880.77;109341;1249;74915;-84
2023/02/28 05:22:03;;;;;;;9.50;8.30;;;;;;;2.02;89.70;101878.72;107106;1253;60627;-85
2023/02/28 05:24:39;;;;;;;9.00;7.60;;;;;;;2.00;90.09;101877.52;106261;1251;60091;-85
2023/02/28 05:27:08;;;;;;;10.70;8.40;;;;;;;2.03;90.54;101877.85;106194;1251;73068;-87
2023/02/28 05:29:41;;;;;;;10.80;8.50;;;;;;;2.09;90.71;101879.71;105988;1257;64781;-86
2023/02/28 05:32:11;;;;;;;13.60;10.00;;;;;;;2.13;90.33;101882.97;106137;1253;73695;-85
2023/02/28 05:34:39;;;;;;;11.20;8.70;;;;;;;2.14;90.07;101886.77;106169;1251;60847;-85
2023/02/28 05:37:12;;;;;;;11.80;8.40;;;;;;;2.17;90.09;101890.55;106131;1251;60046;-85
2023/02/28 05:39:41;;;;;;;12.00;8.70;;;;;;;2.18;89.73;101891.91;106858;1251;74171;-85
2023/02/28 05:42:09;;;;;;;10.10;8.40;;;;;;;2.16;89.52;101894.36;108012;1250;64603;-85
2023/02/28 05:44:37;;;;;;;12.80;8.70;;;;;;;2.13;89.35;101896.79;106141;1253;72606;-87
2023/02/28 05:47:08;;;;;;;10.30;7.80;;;;;;;2.10;89.55;101896.79;106058;1253;60286;-85
2023/02/28 05:49:37;;;;;;;10.20;7.90;;;;;;;2.08;89.54;101901.81;106162;1251;61261;-87
2023/02/28 05:52:06;;;;;;;10.80;8.50;;;;;;;2.06;89.58;101904.91;106225;1251;74073;-85
2023/02/28 05:54:35;;;;;;;13.30;8.30;;;;;;;2.01;89.54;101911.31;106344;1253;64636;-84
2023/02/28 05:57:06;;;;;;;10.70;8.90;;;;;;;1.97;89.84;101912.71;107320;1251;73535;-85
2023/02/28 05:59:51;;;;;;;11.80;8.60;;;;;;;1.93;89.67;101911.52;106348;1256;61934;-86
2023/02/28 06:02:19;;;;;;;14.60;10.70;;;;;;;1.91;89.54;101906.01;106324;1251;61108;-87
2023/02/28 06:04:52;;;;;;;10.60;8.10;;;;;;;1.90;89.88;101900.31;106371;1250;72884;-86
2023/02/28 06:07:22;;;;;;;10.40;8.10;;;;;;;1.94;90.04;101900.83;106338;1251;63804;-87
2023/02/28 06:09:52;;;;;;;12.00;9.30;;;;;;;1.95;89.95;101897.89;106259;1250;73466;-86
2023/02/28 06:12:20;;;;;;;11.50;8.10;;;;;;;1.99;89.69;101909.59;106100;1256;60942;-86
2023/02/28 06:14:49;;;;;;;10.40;8.20;;;;;;;2.03;89.37;101913.38;106200;1250;61183;-87
2023/02/28 06:17:25;;;;;;;9.50;8.30;;;;;;;2.04;88.74;101915.09;106144;1251;74626;-86
2023/02/28 06:19:54;;;;;;;11.60;8.50;;;;;;;2.05;88.75;101912.49;106114;1253;64985;-87
2023/02/28 06:22:22;;;;;;;11.00;8.10;;;;;;;2.08;88.55;101907.33;106061;1254;73560;-86
2023/02/28 06:24:52;;;;;;;11.50;9.30;;;;;;;2.11;88.28;101909.02;106225;1253;62223;-86
2023/02/28 06:27:21;;;;;;;10.70;8.00;;;;;;;2.12;88.04;101904.38;106089;1253;61479;-88
2023/02/28 06:29:53;;;;;;;7.40;6.20;;;;;;;2.14;88.15;101902.81;106097;1253;74675;-87
2023/02/28 06:32:22;;;;;;;13.50;8.80;;;;;;;2.12;87.93;101910.41;106034;1256;64816;-88
2023/02/28 06:34:57;;;;;;;13.80;9.30;;;;;;;2.14;87.71;101916.79;106094;1251;74103;-86
2023/02/28 06:37:26;;;;;;;11.60;9.30;;;;;;;2.19;87.64;101921.25;106128;1253;60555;-87
2023/02/28 06:39:57;;;;;;;10.80;8.10;;;;;;;2.22;87.20;101928.83;106107;1252;61324;-83
2023/02/28 06:42:28;;;;;;;11.40;8.80;;;;;;;2.22;86.64;101931.26;106134;1253;74092;-87
2023/02/28 06:44:59;;;;;;;9.80;8.40;;;;;;;2.20;86.37;101931.09;106167;1253;65626;-87
2023/02/28 06:47:28;;;;;;;13.10;9.10;;;;;;;2.20;86.82;101925.73;106247;1251;73303;-89
2023/02/28 06:50:01;;;;;;;10.10;8.20;;;;;;;2.24;86.87;101928.98;106107;1256;60534;-86
2023/02/28 06:52:30;;;;;;;10.00;8.10;;;;;;;2.32;87.01;101932.92;106348;1253;60341;-87
2023/02/28 06:55:01;;;;;;;11.00;7.80;;;;;;;2.37;86.13;101938.42;108409;1250;74558;-86
2023/02/28 06:57:31;;;;;;;11.10;8.80;;;;;;;2.35;85.78;101934.80;109716;1250;64857;-86
2023/02/28 06:59:59;;;;;;;10.90;9.50;;;;;;;2.33;85.44;101939.30;109845;1250;72336;-86
2023/02/28 07:02:31;;;;;;;12.30;8.90;;;;;;;2.37;85.48;101935.32;109620;1250;59642;-85
2023/02/28 07:05:00;;;;;;;11.50;9.20;;;;;;;2.39;85.22;101942.55;110003;1249;59891;-86
2023/02/28 07:07:28;;;;;;;11.30;8.00;;;;;;;2.35;84.86;101940.50;109929;1251;74264;-86
2023/02/28 07:10:05;;;;;;;11.30;9.20;;;;;;;2.33;84.43;101938.44;110007;1250;64177;-87
2023/02/28 07:16:05;;;;;;;10.50;8.80;;;;;;;2.41;84.82;101947.04;106378;1290;612562;-87
2023/02/28 07:18:33;;;;;;;12.00;9.20;;;;;;;2.43;84.60;101947.37;108794;1269;59511;-85
2023/02/28 07:21:02;;;;;;;12.10;9.20;;;;;;;2.48;84.46;101940.10;108859;1269;60710;-87
2023/02/28 07:23:29;;;;;;;11.80;8.70;;;;;;;2.49;83.57;101933.53;109637;1254;72256;-85
2023/02/28 07:26:08;;;;;;;;;;;;;;;;;;;;;
2023/02/28 07:28:44;;;;;;;13.60;9.70;;;;;;;2.33;83.03;101928.77;107147;1252;3203775;-84
2023/02/28 07:31:13;;;;;;;13.80;10.00;;;;;;;2.33;83.27;101934.28;108016;1255;59356;-87
2023/02/28 07:33:41;;;;;;;11.30;7.60;;;;;;;2.38;83.26;101936.01;106481;1256;60436;-86
2023/02/28 07:36:16;;;;;;;11.90;7.80;;;;;;;2.42;82.87;101931.50;106377;1255;72415;-84
2023/02/28 07:38:49;;;;;;;12.20;9.20;;;;;;;2.41;82.87;101925.30;106495;1258;64627;-86
2023/02/28 07:41:18;;;;;;;11.20;8.10;;;;;;;2.39;83.27;101925.64;106013;1256;73617;-87
2023/02/28 07:43:45;;;;;;;10.90;8.50;;;;;;;2.42;82.97;101925.27;106044;1254;59736;-86
2023/02/28 07:46:17;;;;;;;12.10;9.20;;;;;;;2.43;82.99;101920.80;106013;1257;61308;-85
2023/02/28 07:48:44;;;;;;;13.00;9.70;;;;;;;2.41;82.64;101915.80;105954;1257;72665;-85
2023/02/28 07:51:12;;;;;;;14.20;11.00;;;;;;;2.37;82.64;101913.05;105887;1256;65077;-86
2023/02/28 07:53:40;;;;;;;12.10;9.80;;;;;;;2.35;82.82;101919.98;105937;1256;72493;-86
2023/02/28 07:56:07;;;;;;;13.60;9.80;;;;;;;2.33;82.96;101925.85;105867;1257;61865;-88
2023/02/28 07:58:34;;;;;;;13.40;10.00;;;;;;;2.37;82.95;101927.39;105915;1256;61917;-87
2023/02/28 08:01:08;;;;;;;11.60;8.40;;;;;;;2.39;82.78;101931.85;105867;1257;73933;-86
2023/02/28 08:03:35;;;;;;;10.50;8.70;;;;;;;2.43;82.57;101935.63;105968;1257;63803;-87
2023/02/28 08:06:04;;;;;;;12.70;9.50;;;;;;;2.47;82.74;101938.02;106031;1254;73686;-86
2023/02/28 08:08:31;;;;;;;11.30;8.50;;;;;;;2.55;82.53;101939.38;105969;1254;59736;-87
2023/02/28 08:11:00;;;;;;;11.70;9.00;;;;;;;2.57;82.04;101937.10;105988;1254;61291;-86
2023/02/28 08:13:28;;;;;;;13.20;9.40;;;;;;;2.59;81.97;101934.00;106620;1257;72976;-86
2023/02/28 08:16:02;;;;;;;13.00;9.40;;;;;;;2.56;81.80;101931.94;108727;1251;64748;-87
2023/02/28 08:18:31;;;;;;;10.60;8.50;;;;;;;2.53;81.68;101940.77;107392;1251;72638;-86
2023/02/28 08:20:59;;;;;;;11.10;9.30;;;;;;;2.54;81.90;101946.27;107050;1251;62214;-86
2023/02/28 08:23:27;;;;;;;13.00;9.30;;;;;;;2.55;81.79;101953.00;106543;1251;61494;-86
2023/02/28 08:25:55;;;;;;;12.80;9.20;;;;;;;2.58;81.87;101954.55;106310;1251;74497;-87
2023/02/28 08:28:26;;;;;;;13.20;9.30;;;;;;;2.61;81.67;101957.45;106159;1251;64460;-87
2023/02/28 08:30:55;;;;;;;13.80;9.60;;;;;;;2.64;81.41;101954.67;106021;1257;73004;-86
2023/02/28 08:33:23;;;;;;;13.10;9.90;;;;;;;2.65;81.48;101953.30;106031;1256;61072;-88
2023/02/28 08:35:58;;;;;;;12.60;9.80;;;;;;;2.68;81.04;101950.87;106088;1258;60274;-87
2023/02/28 08:38:33;;;;;;;12.10;10.00;;;;;;;2.71;81.01;101949.80;106758;1253;74004;-85
2023/02/28 08:41:07;;;;;;;12.60;9.40;;;;;;;2.72;80.75;101949.11;106859;1258;63933;-83
2023/02/28 08:43:34;;;;;;;10.70;8.90;;;;;;;2.71;80.46;101946.88;106556;1259;72742;-86
2023/02/28 08:46:02;;;;;;;11.60;9.40;;;;;;;2.71;80.26;101952.75;105724;1256;61462;-87
2023/02/28 08:48:30;;;;;;;9.40;8.20;;;;;;;2.66;80.36;101954.50;105913;1260;61005;-87
2023/02/28 08:50:58;;;;;;;13.00;9.20;;;;;;;2.68;81.11;101955.16;105782;1257;73119;-85
2023/02/28 08:53:37;;;;;;;11.40;8.70;;;;;;;2.71;80.46;101953.25;105940;1259;63864;-86
2023/02/28 08:56:12;;;;;;;11.00;8.80;;;;;;;2.68;80.33;101959.15;106560;1256;73767;-86
2023/02/28 08:58:40;;;;;;;13.10;9.70;;;;;;;2.64;80.34;101958.66;109084;1256;60339;-86
2023/02/28 09:01:16;;;;;;;11.10;9.40;;;;;;;2.63;80.48;101956.93;109140;1257;60150;-86
2023/02/28 09:03:45;;;;;;;9.80;8.50;;;;;;;2.65;80.16;101962.10;109230;1255;73061;-86
2023/02/28 09:06:13;;;;;;;13.40;10.10;;;;;;;2.67;80.34;101963.65;109107;1254;64327;-86
2023/02/28 09:08:41;;;;;;;12.60;9.90;;;;;;;2.72;80.37;101965.51;109401;1257;72692;-86
2023/02/28 09:11:09;;;;;;;11.40;9.30;;;;;;;2.79;80.29;101964.79;109433;1256;61242;-86
2023/02/28 09:13:36;;;;;;;10.60;8.70;;;;;;;2.86;80.15;101963.02;109870;1251;60255;-86
2023/02/28 09:16:04;;;;;;;11.30;8.80;;;;;;;2.93;80.11;101966.26;109862;1251;72697;-86
2023/02/28 09:22:41;;;;;;;12.90;10.00;;;;;;;3.05;78.66;101954.94;109829;1251;72445;-86
2023/02/28 09:25:10;;;;;;;16.60;10.50;;;;;;;3.07;78.47;101957.88;109770;1251;59466;-85
2023/02/28 09:27:39;;;;;;;16.00;11.10;;;;;;;3.05;78.39;101962.37;109708;1251;60335;-86
2023/02/28 09:30:09;;;;;;;14.00;11.50;;;;;;;2.99;78.38;101966.04;109844;1251;72928;-86
2023/02/28 09:32:37;;;;;;;15.40;11.30;;;;;;;2.96;78.60;101965.18;109738;1251;63904;-84
2023/02/28 09:35:05;;;;;;;13.90;9.90;;;;;;;2.95;78.71;101968.48;109656;1251;72605;-84
2023/02/28 09:37:34;;;;;;;12.40;10.40;;;;;;;2.93;78.66;101967.80;109365;1251;60857;-86
2023/02/28 09:40:03;;;;;;;12.60;10.70;;;;;;;2.88;78.38;101966.11;107078;1251;61791;-87
2023/02/28 09:42:32;;;;;;;13.60;11.00;;;;;;;2.80;78.98;101962.88;106188;1256;73881;-84
2023/02/28 09:45:00;;;;;;;15.30;11.00;;;;;;;2.82;78.96;101964.77;106791;1251;64258;-86
2023/02/28 09:47:36;;;;;;;15.90;9.60;;;;;;;2.84;78.62;101968.90;106408;1251;72659;-86
2023/02/28 09:50:50;;;;;;;15.00;10.90;;;;;;;2.80;78.61;101969.10;106811;1256;59579;-85
2023/02/28 09:53:38;;;;;;;17.50;11.20;;;;;;;2.74;78.61;101974.82;107797;1251;60350;-87
2023/02/28 09:56:11;;;;;;;14.50;10.40;;;;;;;2.76;78.86;101970.49;107522;1251;72987;-86
2023/02/28 09:58:51;;;;;;;16.40;11.60;;;;;;;2.78;78.51;101963.76;107375;1253;63792;-87
2023/02/28 10:01:25;;;;;;;13.30;10.90;;;;;;;2.74;78.24;101963.78;107109;1251;73080;-87
2023/02/28 10:04:11;;;;;;;13.70;10.50;;;;;;;2.77;78.31;101958.58;107144;1255;61285;-85
2023/02/28 10:06:46;;;;;;;11.60;9.10;;;;;;;2.83;77.86;101963.55;107258;1256;60186;-86
2023/02/28 10:09:24;;;;;;;14.50;10.60;;;;;;;2.81;77.20;101958.55;107195;1257;73047;-87
2023/02/28 10:11:56;;;;;;;12.40;10.20;;;;;;;2.78;77.62;101958.40;107738;1251;63501;-85
2023/02/28 10:14:26;;;;;;;12.10;10.30;;;;;;;2.78;77.86;101954.77;107429;1251;72498;-85
2023/02/28 10:17:14;;;;;;;13.90;9.70;;;;;;;2.78;77.56;101954.26;107728;1251;59634;-86
2023/02/28 10:20:07;;;;;;;12.70;10.10;;;;;;;2.76;77.67;101951.84;108738;1251;59868;-87
2023/02/28 10:23:07;;;;;;;13.20;9.90;;;;;;;2.81;77.47;101950.95;109912;1251;72786;-86
2023/02/28 10:25:36;;;;;;;13.60;11.90;;;;;;;2.77;76.92;101948.91;109192;1251;63938;-86
2023/02/28 10:28:20;;;;;;;;;;;;;;;2.77;76.89;101948.56;108613;1251;72763;-87
2023/02/28 10:30:49;;;;;;;14.90;11.10;;;;;;;2.75;76.70;101947.36;106421;1256;60293;-87
2023/02/28 10:33:29;;;;;;;13.70;10.60;;;;;;;2.73;77.02;101945.65;106339;1251;61673;-87
2023/02/28 10:35:56;;;;;;;14.40;10.90;;;;;;;2.67;76.97;101936.88;106205;1257;73050;-87
2023/02/28 10:38:25;;;;;;;10.10;9.10;;;;;;;2.60;76.74;101938.65;106287;1255;64901;-86
2023/02/28 10:40:56;;;;;;;12.90;10.10;;;;;;;2.57;76.54;101941.60;106409;1257;73630;-85
2023/02/28 10:43:24;;;;;;;15.70;10.20;;;;;;;2.59;76.66;101937.80;106516;1257;59831;-86
2023/02/28 10:46:25;;;;;;;12.10;10.10;;;;;;;2.65;76.62;101937.94;106317;1251;61035;-85
2023/02/28 10:49:03;;;;;;;13.80;10.90;;;;;;;2.72;76.66;101940.82;106876;1251;74047;-84
2023/02/28 10:51:38;;;;;;;13.70;10.80;;;;;;;2.77;76.57;101932.67;107722;1251;64228;-86
2023/02/28 10:54:05;;;;;;;14.20;10.80;;;;;;;2.80;76.17;101934.04;107815;1251;73658;-84
2023/02/28 10:56:33;;;;;;;14.00;10.20;;;;;;;2.76;75.83;101929.58;107870;1256;59568;-85
2023/02/28 10:59:20;;;;;;;12.20;10.50;;;;;;;2.69;75.70;101920.46;107796;1251;61232;-85
2023/02/28 11:01:50;;;;;;;11.60;9.10;;;;;;;2.63;75.51;101915.51;107838;1256;72819;-84
2023/02/28 11:04:21;;;;;;;11.50;8.90;;;;;;;2.63;75.48;101908.08;107761;1251;64240;-86
2023/02/28 11:07:17;;;;;;;11.20;8.90;;;;;;;2.66;75.55;101913.23;107979;1257;72918;-86
2023/02/28 11:09:53;;;;;;;11.70;9.50;;;;;;;2.69;76.10;101913.21;107742;1256;59654;-85
2023/02/28 11:12:31;;;;;;;13.10;9.10;;;;;;;2.73;76.12;101912.52;109255;1251;60307;-86
2023/02/28 11:15:19;;;;;;;14.00;10.50;;;;;;;2.78;76.22;101913.50;108566;1251;72801;-86
2023/02/28 11:17:59;;;;;;;12.40;10.50;;;;;;;2.85;75.88;101918.97;107733;1256;63845;-86
2023/02/28 11:20:31;;;;;;;14.00;10.50;;;;;;;2.87;75.29;101917.07;107993;1251;72628;-87
2023/02/28 11:23:02;;;;;;;17.40;13.00;;;;;;;2.83;75.16;101914.66;108056;1251;59585;-85
2023/02/28 11:25:31;;;;;;;14.10;11.70;;;;;;;2.79;74.95;101912.81;106990;1251;60251;-86
2023/02/28 11:28:04;;;;;;;14.60;11.80;;;;;;;2.77;74.94;101912.30;106319;1251;72472;-84
2023/02/28 11:30:39;;;;;;;14.50;11.70;;;;;;;2.73;74.92;101912.85;106233;1257;63574;-85
2023/02/28 11:33:29;;;;;;;16.30;11.00;;;;;;;2.69;75.41;101912.86;106175;1251;73703;-85
2023/02/28 11:36:09;;;;;;;13.30;10.50;;;;;;;2.72;75.59;101910.43;106888;1251;60649;-86
2023/02/28 11:38:36;;;;;;;14.30;11.00;;;;;;;2.75;75.74;101909.20;106271;1251;60999;-86
2023/02/28 11:41:23;;;;;;;14.90;10.60;;;;;;;2.80;75.85;101905.89;107866;1251;73835;-82
2023/02/28 11:44:22;;;;;;;13.60;9.90;;;;;;;2.84;75.77;101903.61;107497;1251;63787;-85
2023/02/28 11:46:53;;;;;;;14.40;9.80;;;;;;;2.89;75.82;101900.48;107776;1251;72690;-85
2023/02/28 11:49:31;;;;;;;13.30;10.40;;;;;;;3.01;75.83;101900.73;108477;1251;60352;-86